Time;durP1;ratioP1;P1;durP2;ratioP2;P2;SDS_P1;SDS_P2;PMS_P1;PMS_P2;Temp;Humidity;BMP_temperature;BMP_pressure;BME280_temperature;BME280_humidity;BME280_pressure;Samples;Min_cycle;Max_cycle;Signal;HPM_P1;HPM_P2
2021/05/14 00:00:10;;;;;;;4.88;0.98;;;17.80;52.70;;;;;;5080954;28;20119;-64
2021/05/14 00:02:40;;;;;;;4.18;0.70;;;17.90;50.60;;;;;;5081380;28;20579;-67
2021/05/14 00:05:09;;;;;;;1.73;0.88;;;17.90;50.30;;;;;;5060449;28;20027;-64
2021/05/14 00:07:36;;;;;;;3.13;0.85;;;18.00;50.90;;;;;;5083160;28;20518;-67
2021/05/14 00:10:06;;;;;;;4.18;1.05;;;18.00;50.50;;;;;;5083683;28;20020;-63
2021/05/14 00:12:33;;;;;;;1.77;1.00;;;18.10;49.70;;;;;;5083135;28;20499;-65
2021/05/14 00:15:01;;;;;;;5.50;2.20;;;18.00;50.20;;;;;;5064523;28;20059;-63
2021/05/14 00:17:28;;;;;;;1.02;0.90;;;18.10;50.30;;;;;;5081283;28;20056;-67
2021/05/14 00:19:56;;;;;;;1.42;0.70;;;18.20;47.10;;;;;;5082744;28;20487;-66
2021/05/14 00:22:23;;;;;;;3.83;1.10;;;18.10;48.30;;;;;;5064174;28;20546;-66
2021/05/14 00:24:50;;;;;;;6.65;1.65;;;18.10;47.10;;;;;;5077742;28;20943;-65
2021/05/14 00:27:17;;;;;;;5.03;1.48;;;18.20;46.60;;;;;;5080063;28;20077;-68
2021/05/14 00:29:45;;;;;;;4.35;0.77;;;18.20;43.10;;;;;;5076848;28;20452;-65
2021/05/14 00:32:12;;;;;;;5.57;0.80;;;18.00;43.30;;;;;;5081871;28;20099;-67
2021/05/14 00:34:43;;;;;;;2.22;0.70;;;18.10;44.10;;;;;;5083824;28;20410;-68
2021/05/14 00:37:10;;;;;;;12.68;1.40;;;18.30;43.40;;;;;;5082915;28;20495;-68
2021/05/14 00:39:37;;;;;;;6.13;1.40;;;18.30;42.10;;;;;;5082492;28;20024;-69
2021/05/14 00:42:05;;;;;;;3.03;0.90;;;18.20;42.20;;;;;;5081983;28;20508;-65
2021/05/14 00:44:35;;;;;;;5.97;0.98;;;18.30;42.00;;;;;;5083738;28;20384;-68
2021/05/14 00:47:08;;;;;;;5.60;1.20;;;18.20;40.60;;;;;;5065110;28;20405;-66
2021/05/14 00:49:43;;;;;;;9.90;1.48;;;18.30;41.00;;;;;;5083096;28;20359;-66
2021/05/14 00:52:18;;;;;;;10.13;1.40;;;18.40;41.80;;;;;;5083636;28;20032;-68
2021/05/14 00:54:47;;;;;;;7.03;1.40;;;18.60;40.90;;;;;;5081277;28;20509;-64
2021/05/14 00:57:16;;;;;;;10.20;1.17;;;18.70;39.90;;;;;;5060852;28;20303;-65
2021/05/14 00:59:45;;;;;;;9.38;1.60;;;18.80;39.60;;;;;;5081488;28;20494;-66
2021/05/14 01:02:13;;;;;;;0.98;0.55;;;18.90;38.30;;;;;;5082601;28;20024;-68
2021/05/14 01:04:42;;;;;;;3.15;0.63;;;18.80;37.70;;;;;;5064583;28;20036;-68
2021/05/14 01:07:11;;;;;;;2.40;0.60;;;18.90;38.00;;;;;;5081640;28;20468;-65
2021/05/14 01:09:40;;;;;;;3.88;0.80;;;18.90;36.60;;;;;;5080970;28;20119;-65
2021/05/14 01:12:09;;;;;;;10.45;1.20;;;18.90;37.10;;;;;;5081691;28;20078;-68
2021/05/14 01:14:37;;;;;;;15.30;1.50;;;18.90;37.50;;;;;;5083015;28;20036;-68
2021/05/14 01:17:05;;;;;;;3.00;1.20;;;18.90;36.60;;;;;;5063682;28;20514;-65
2021/05/14 01:19:32;;;;;;;3.60;0.82;;;19.00;37.40;;;;;;5078102;28;20527;-65
2021/05/14 01:22:03;;;;;;;7.40;0.85;;;18.90;35.30;;;;;;5088854;22;20041;-66
2021/05/14 01:24:34;;;;;;;5.22;1.08;;;18.90;35.60;;;;;;5080499;28;20020;-69
2021/05/14 01:27:02;;;;;;;8.80;1.25;;;18.90;36.50;;;;;;5079952;28;20036;-69
2021/05/14 01:29:29;;;;;;;3.10;0.75;;;19.10;36.40;;;;;;5078635;28;20024;-67
2021/05/14 01:31:57;;;;;;;2.53;0.82;;;19.00;35.80;;;;;;5062696;28;20038;-67
2021/05/14 01:34:24;;;;;;;5.43;3.22;;;19.00;36.50;;;;;;5083194;28;20016;-68
2021/05/14 01:36:51;;;;;;;2.95;1.30;;;18.90;35.50;;;;;;5082775;28;20305;-68
2021/05/14 01:39:23;;;;;;;9.23;0.88;;;19.00;36.20;;;;;;5084638;28;20031;-68
2021/05/14 01:41:52;;;;;;;1.95;0.80;;;19.00;36.90;;;;;;5081008;28;20133;-68
2021/05/14 01:44:19;;;;;;;3.65;0.60;;;19.00;36.60;;;;;;5084766;28;20758;-65
2021/05/14 01:46:47;;;;;;;4.75;1.10;;;19.10;36.90;;;;;;5085533;28;20075;-70
2021/05/14 01:49:14;;;;;;;4.63;1.00;;;19.00;37.20;;;;;;5086313;28;20373;-65
2021/05/14 01:51:42;;;;;;;4.85;0.93;;;18.80;36.70;;;;;;5087359;28;20112;-68
2021/05/14 01:54:09;;;;;;;0.98;0.30;;;18.90;38.20;;;;;;5069605;28;20027;-63
2021/05/14 01:56:36;;;;;;;2.70;0.40;;;19.10;36.20;;;;;;5087339;28;20028;-62
2021/05/14 01:59:05;;;;;;;5.97;0.80;;;19.00;36.60;;;;;;5088490;28;20032;-65
2021/05/14 02:01:33;;;;;;;3.15;0.93;;;19.00;37.20;;;;;;5081367;28;20028;-65
2021/05/14 02:04:00;;;;;;;4.13;0.82;;;19.10;37.40;;;;;;5086133;28;20111;-63
2021/05/14 02:06:27;;;;;;;4.97;0.57;;;19.10;37.50;;;;;;5086531;28;20470;-69
2021/05/14 02:08:55;;;;;;;6.93;0.73;;;19.20;37.80;;;;;;5085133;28;20119;-69
2021/05/14 02:11:22;;;;;;;7.25;0.90;;;19.50;38.20;;;;;;4380185;28;10000711;-69
2021/05/14 02:13:49;;;;;;;2.88;0.80;;;19.70;38.60;;;;;;5064580;28;20503;-68
2021/05/14 02:16:16;;;;;;;6.30;1.00;;;19.80;36.70;;;;;;5083395;28;20032;-69
2021/05/14 02:18:44;;;;;;;10.82;1.58;;;19.80;36.20;;;;;;5082485;28;20024;-66
2021/05/14 02:21:11;;;;;;;16.75;1.63;;;19.50;37.20;;;;;;5082424;28;20027;-65
2021/05/14 02:23:39;;;;;;;5.20;0.90;;;19.30;37.70;;;;;;5092595;28;20451;-66
2021/05/14 02:26:07;;;;;;;12.02;0.98;;;19.10;37.70;;;;;;5100854;28;20036;-65
2021/05/14 02:28:35;;;;;;;5.80;1.13;;;19.00;37.70;;;;;;5102476;28;20542;-65
2021/05/14 02:31:03;;;;;;;4.55;0.85;;;19.20;38.20;;;;;;5103413;28;20023;-65
2021/05/14 02:33:31;;;;;;;6.32;0.75;;;19.20;37.60;;;;;;5102783;28;20027;-64
2021/05/14 02:35:58;;;;;;;6.57;1.10;;;18.90;37.10;;;;;;5103159;28;20032;-65
2021/05/14 02:38:26;;;;;;;5.18;0.95;;;18.90;37.50;;;;;;5097363;28;20116;-67
2021/05/14 02:40:53;;;;;;;2.67;0.50;;;18.90;37.50;;;;;;5098159;28;20055;-66
2021/05/14 02:43:20;;;;;;;5.63;1.83;;;19.00;38.00;;;;;;5089978;28;20031;-65
2021/05/14 02:45:48;;;;;;;2.58;0.60;;;19.30;36.90;;;;;;5092340;28;20039;-66
2021/05/14 02:48:17;;;;;;;3.33;0.52;;;19.20;36.40;;;;;;5100228;28;20027;-66
2021/05/14 02:50:45;;;;;;;2.38;0.60;;;19.00;38.10;;;;;;5101569;28;20027;-66
2021/05/14 02:53:12;;;;;;;3.15;0.60;;;18.90;38.00;;;;;;5102026;28;20094;-67
2021/05/14 02:55:39;;;;;;;5.65;0.68;;;19.10;38.90;;;;;;5100348;28;20360;-66
2021/05/14 02:58:06;;;;;;;6.95;0.82;;;19.20;36.90;;;;;;5102008;28;20020;-66
2021/05/14 03:00:34;;;;;;;3.83;0.60;;;19.30;39.00;;;;;;5097888;28;20485;-67
2021/05/14 03:03:01;;;;;;;4.80;0.65;;;19.50;38.50;;;;;;5092531;28;20384;-66
2021/05/14 03:05:28;;;;;;;3.40;0.45;;;19.60;36.90;;;;;;5093880;28;20024;-66
2021/05/14 03:07:55;;;;;;;3.30;0.82;;;19.70;36.60;;;;;;5091284;28;20016;-65
2021/05/14 03:10:23;;;;;;;2.78;0.35;;;19.60;37.50;;;;;;5092723;28;20073;-65
2021/05/14 03:12:50;;;;;;;4.53;0.50;;;19.40;36.80;;;;;;5093136;28;20023;-66
2021/05/14 03:15:17;;;;;;;3.42;0.75;;;19.40;37.20;;;;;;5096850;28;20020;-67
2021/05/14 03:17:45;;;;;;;5.88;1.83;;;19.50;37.90;;;;;;5101370;28;20026;-66
2021/05/14 03:20:12;;;;;;;6.90;0.95;;;19.70;38.60;;;;;;5101505;28;20038;-66
2021/05/14 03:22:40;;;;;;;4.72;0.73;;;19.90;38.30;;;;;;5108123;27;20043;-66
2021/05/14 03:25:10;;;;;;;3.63;0.90;;;20.10;37.20;;;;;;5115271;27;20164;-66
2021/05/14 03:27:38;;;;;;;7.75;1.02;;;20.20;37.30;;;;;;5100620;27;20339;-66
2021/05/14 03:30:07;;;;;;;4.28;0.50;;;20.10;37.60;;;;;;5121937;27;20050;-65
2021/05/14 03:32:35;;;;;;;0.85;0.40;;;20.00;37.80;;;;;;5121987;27;20018;-66
2021/05/14 03:35:03;;;;;;;4.68;0.75;;;20.00;37.90;;;;;;5113850;27;20378;-66
2021/05/14 03:37:31;;;;;;;4.55;0.75;;;19.90;37.70;;;;;;5116863;27;20434;-67
2021/05/14 03:40:03;;;;;;;2.08;0.30;;;19.90;37.50;;;;;;5115168;27;20130;-66
2021/05/14 03:42:30;;;;;;;2.10;0.45;;;19.90;36.90;;;;;;5114775;27;20288;-65
2021/05/14 03:44:58;;;;;;;3.58;0.60;;;19.60;37.80;;;;;;5121094;27;20031;-64
2021/05/14 03:47:26;;;;;;;4.30;0.70;;;19.70;38.10;;;;;;5121793;27;20505;-66
2021/05/14 03:49:53;;;;;;;3.55;0.50;;;19.90;38.40;;;;;;5119166;27;20591;-63
2021/05/14 03:52:20;;;;;;;2.08;0.57;;;19.70;37.80;;;;;;5120531;27;20130;-66
2021/05/14 03:54:48;;;;;;;1.90;0.57;;;19.60;38.10;;;;;;5116069;27;20030;-66
2021/05/14 03:57:15;;;;;;;1.15;0.38;;;19.80;38.70;;;;;;5102370;27;20436;-66
2021/05/14 03:59:42;;;;;;;2.55;0.60;;;19.90;38.20;;;;;;5110044;27;20059;-68
2021/05/14 04:02:11;;;;;;;1.70;0.45;;;19.80;38.50;;;;;;5118501;27;20850;-70
2021/05/14 04:04:38;;;;;;;3.50;0.35;;;19.80;38.10;;;;;;5115263;27;20031;-67
2021/05/14 04:07:06;;;;;;;7.28;1.33;;;19.90;38.30;;;;;;5114728;27;20400;-67
2021/05/14 04:09:37;;;;;;;2.83;0.60;;;19.90;39.70;;;;;;5122025;27;20019;-67
2021/05/14 04:14:33;;;;;;;1.77;0.52;;;20.30;38.50;;;;;;5118658;27;20026;-64
2021/05/14 04:17:03;;;;;;;5.07;0.55;;;20.30;37.60;;;;;;5108730;27;20188;-68
2021/05/14 04:19:31;;;;;;;2.72;0.65;;;20.20;37.30;;;;;;5089976;27;20022;-65
2021/05/14 04:22:00;;;;;;;0.95;0.30;;;20.20;38.50;;;;;;5110133;27;20117;-66
2021/05/14 04:24:28;;;;;;;0.93;0.40;;;20.20;37.60;;;;;;5111664;27;20049;-67
2021/05/14 04:26:57;;;;;;;1.50;0.85;;;20.30;37.90;;;;;;5117722;27;20023;-68
2021/05/14 04:29:26;;;;;;;1.92;1.15;;;20.10;38.10;;;;;;5095233;27;20046;-66
2021/05/14 04:31:53;;;;;;;1.25;0.90;;;20.10;38.00;;;;;;5117532;27;20021;-69
2021/05/14 04:34:21;;;;;;;3.95;0.65;;;19.90;38.50;;;;;;5109950;27;20034;-67
2021/05/14 04:36:48;;;;;;;2.03;0.47;;;19.90;38.10;;;;;;5119311;27;20155;-70
2021/05/14 04:39:16;;;;;;;2.60;0.73;;;19.90;38.20;;;;;;5112845;27;20044;-67
2021/05/14 04:41:43;;;;;;;3.03;0.75;;;19.90;38.30;;;;;;5119361;27;20120;-68
2021/05/14 04:44:11;;;;;;;1.02;0.47;;;19.90;37.90;;;;;;5120655;27;20027;-68
2021/05/14 04:46:38;;;;;;;1.08;0.65;;;20.00;38.20;;;;;;5120048;27;20071;-66
2021/05/14 04:49:05;;;;;;;1.95;0.50;;;20.10;38.20;;;;;;5116599;27;20019;-66
2021/05/14 04:51:33;;;;;;;1.88;0.40;;;20.10;37.90;;;;;;5109694;27;20046;-67
2021/05/14 04:54:01;;;;;;;3.63;0.50;;;20.10;37.90;;;;;;5120276;27;20485;-68
2021/05/14 04:56:28;;;;;;;2.28;0.57;;;20.00;37.30;;;;;;5118078;27;20509;-67
2021/05/14 04:58:56;;;;;;;2.05;0.52;;;20.00;37.90;;;;;;5115745;27;20042;-66
2021/05/14 05:01:23;;;;;;;3.22;0.70;;;19.80;37.80;;;;;;5118186;27;20050;-68
2021/05/14 05:03:58;;;;;;;3.13;0.73;;;19.70;38.00;;;;;;5120152;27;20499;-67
2021/05/14 05:06:26;;;;;;;4.13;0.90;;;19.60;37.60;;;;;;5119245;27;20030;-67
2021/05/14 05:08:53;;;;;;;4.53;0.60;;;19.60;39.30;;;;;;5121199;27;20436;-67
2021/05/14 05:11:21;;;;;;;2.45;0.50;;;19.70;38.20;;;;;;5098131;28;20609;-65
2021/05/14 05:13:48;;;;;;;1.85;0.50;;;19.80;36.90;;;;;;5119876;27;20066;-66
2021/05/14 05:16:15;;;;;;;1.40;0.43;;;19.80;36.70;;;;;;5112801;28;20035;-68
2021/05/14 05:18:42;;;;;;;3.08;1.13;;;19.80;36.10;;;;;;5119035;28;20023;-66
2021/05/14 05:21:10;;;;;;;2.13;0.45;;;19.80;36.90;;;;;;5112344;28;20027;-65
2021/05/14 05:23:37;;;;;;;1.17;0.40;;;19.90;36.50;;;;;;5100964;28;20411;-67
2021/05/14 05:26:04;;;;;;;5.80;0.68;;;19.90;36.30;;;;;;5107074;28;20034;-67
2021/05/14 05:28:32;;;;;;;3.80;0.90;;;19.80;36.30;;;;;;5119914;28;20011;-64
2021/05/14 05:31:00;;;;;;;1.70;0.50;;;20.00;37.40;;;;;;5119106;28;20510;-65
2021/05/14 05:33:27;;;;;;;2.22;0.70;;;20.00;37.50;;;;;;5090577;28;20028;-64
2021/05/14 05:35:55;;;;;;;2.13;0.90;;;20.40;37.00;;;;;;5112894;28;20023;-64
2021/05/14 05:38:26;;;;;;;4.65;0.88;;;20.60;36.40;;;;;;5121121;28;20026;-65
2021/05/14 05:40:54;;;;;;;5.23;0.83;;;20.60;37.00;;;;;;5122272;27;20109;-64
2021/05/14 05:43:21;;;;;;;2.08;0.80;;;20.70;35.50;;;;;;5109623;28;20260;-62
2021/05/14 05:45:48;;;;;;;3.13;0.80;;;20.60;35.20;;;;;;5114613;28;20090;-64
2021/05/14 05:48:16;;;;;;;4.72;0.98;;;20.40;35.50;;;;;;5101263;28;20449;-63
2021/05/14 05:50:43;;;;;;;3.63;0.75;;;20.30;36.10;;;;;;5119137;28;20027;-62
2021/05/14 05:53:11;;;;;;;2.72;0.75;;;20.40;36.40;;;;;;5119208;28;20042;-64
2021/05/14 05:55:39;;;;;;;3.03;0.75;;;20.00;36.50;;;;;;5114387;28;20027;-66
2021/05/14 05:58:09;;;;;;;2.55;0.68;;;19.60;37.70;;;;;;5111286;28;20509;-65
2021/05/14 06:00:36;;;;;;;1.90;0.95;;;19.20;39.10;;;;;;5117636;28;20050;-61
2021/05/14 06:03:07;;;;;;;2.80;0.90;;;18.90;38.50;;;;;;5112091;28;20394;-63
2021/05/14 06:05:35;;;;;;;3.47;0.73;;;18.70;38.90;;;;;;5112852;28;20034;-67
2021/05/14 06:08:05;;;;;;;5.40;0.98;;;18.50;39.70;;;;;;5120301;28;20470;-67
2021/05/14 06:10:32;;;;;;;2.53;0.75;;;18.40;40.10;;;;;;5119143;28;20275;-68
2021/05/14 06:13:00;;;;;;;2.72;1.25;;;18.30;41.80;;;;;;5110657;28;20631;-71
2021/05/14 06:15:27;;;;;;;2.05;0.60;;;18.30;42.90;;;;;;5120394;28;20023;-72
2021/05/14 06:17:54;;;;;;;3.00;0.70;;;18.20;43.40;;;;;;5118933;28;20118;-68
2021/05/14 06:20:24;;;;;;;2.70;0.82;;;18.00;43.20;;;;;;5119509;28;20029;-70
2021/05/14 06:22:52;;;;;;;1.77;0.50;;;17.80;44.50;;;;;;5114042;28;20043;-68
2021/05/14 06:25:20;;;;;;;0.68;0.50;;;17.60;44.10;;;;;;5117057;27;20081;-70
2021/05/14 06:27:47;;;;;;;3.15;0.82;;;17.50;45.20;;;;;;5097858;27;20483;-69
2021/05/14 06:30:16;;;;;;;2.70;1.13;;;17.50;44.90;;;;;;5116497;27;20019;-70
2021/05/14 06:32:43;;;;;;;3.85;0.80;;;17.70;44.60;;;;;;5112741;27;20072;-69
2021/05/14 06:35:11;;;;;;;3.85;0.90;;;17.90;44.70;;;;;;5117092;27;20031;-67
2021/05/14 06:37:38;;;;;;;2.13;0.93;;;18.20;44.30;;;;;;5097480;27;20054;-67
2021/05/14 06:40:07;;;;;;;5.75;2.90;;;18.40;43.40;;;;;;5113320;27;20042;-69
2021/05/14 06:42:35;;;;;;;5.07;2.22;;;18.40;43.70;;;;;;5111180;27;20092;-70
2021/05/14 06:45:02;;;;;;;6.03;0.80;;;18.40;44.00;;;;;;5097012;27;20539;-70
2021/05/14 06:47:30;;;;;;;2.72;0.70;;;18.20;44.30;;;;;;5116041;27;20035;-67
2021/05/14 06:49:57;;;;;;;3.45;0.90;;;17.90;44.50;;;;;;5117019;27;20075;-68
2021/05/14 06:52:25;;;;;;;1.67;0.68;;;17.70;45.80;;;;;;5117935;27;20057;-68
2021/05/14 06:54:52;;;;;;;4.80;1.42;;;17.30;46.10;;;;;;5114985;27;20030;-70
2021/05/14 06:57:19;;;;;;;3.85;1.10;;;16.90;47.70;;;;;;5112973;27;20479;-68
2021/05/14 06:59:46;;;;;;;4.55;1.05;;;16.50;49.00;;;;;;5115743;27;20587;-68
2021/05/14 07:02:14;;;;;;;8.07;1.58;;;16.20;50.00;;;;;;5116650;27;20020;-64
2021/05/14 07:04:41;;;;;;;4.82;1.00;;;16.00;50.20;;;;;;5099714;27;20535;-66
2021/05/14 07:07:08;;;;;;;6.40;0.93;;;15.80;50.70;;;;;;5097745;27;20324;-70
2021/05/14 07:09:36;;;;;;;2.35;1.17;;;15.50;51.50;;;;;;5118048;27;20016;-71
2021/05/14 07:12:03;;;;;;;4.78;1.00;;;15.40;51.60;;;;;;5100765;27;20069;-72
2021/05/14 07:14:30;;;;;;;6.15;1.40;;;15.30;51.60;;;;;;5116775;27;20463;-65
2021/05/14 07:16:58;;;;;;;5.05;1.17;;;15.20;52.10;;;;;;5115670;27;20392;-67
2021/05/14 07:19:27;;;;;;;5.85;1.33;;;15.10;52.20;;;;;;5115200;27;20023;-70
2021/05/14 07:21:55;;;;;;;12.63;1.35;;;15.00;53.10;;;;;;5114402;27;20026;-65
2021/05/14 07:24:22;;;;;;;4.80;1.30;;;14.80;53.20;;;;;;5110651;27;20080;-68
2021/05/14 07:26:49;;;;;;;3.10;0.98;;;14.80;53.40;;;;;;5113394;27;20166;-65
2021/05/14 07:29:17;;;;;;;7.90;1.42;;;14.70;53.30;;;;;;5115186;27;20027;-65
2021/05/14 07:31:46;;;;;;;4.88;1.08;;;14.80;53.20;;;;;;5097378;27;20097;-69
2021/05/14 07:34:13;;;;;;;5.03;1.10;;;14.70;53.40;;;;;;5119688;27;20019;-69
2021/05/14 07:36:41;;;;;;;10.25;1.60;;;14.70;53.40;;;;;;5118217;27;20047;-69
2021/05/14 07:39:17;;;;;;;4.86;1.05;;;14.60;53.70;;;;;;5041609;27;10000604;-71
2021/05/14 07:41:44;;;;;;;8.25;1.40;;;14.60;53.70;;;;;;5115976;27;20699;-68
2021/05/14 07:44:11;;;;;;;6.60;1.80;;;14.50;53.90;;;;;;5096599;27;20434;-73
2021/05/14 07:46:39;;;;;;;8.15;1.63;;;14.40;54.60;;;;;;5087587;27;20509;-68
2021/05/14 07:49:06;;;;;;;9.15;1.90;;;14.40;54.80;;;;;;5110782;27;20030;-65
2021/05/14 07:51:33;;;;;;;7.32;1.88;;;14.20;55.30;;;;;;5115440;27;20016;-67
2021/05/14 07:54:00;;;;;;;5.28;1.58;;;14.10;55.70;;;;;;5110933;27;20127;-67
2021/05/14 07:56:28;;;;;;;7.68;1.30;;;14.10;56.10;;;;;;5113503;27;20019;-69
2021/05/14 07:58:55;;;;;;;9.23;1.58;;;13.90;57.10;;;;;;5095291;27;20356;-76
2021/05/14 08:01:22;;;;;;;13.90;2.35;;;13.60;57.90;;;;;;5111975;27;20069;-72
2021/05/14 08:03:50;;;;;;;9.43;1.83;;;13.60;57.60;;;;;;5096746;27;20087;-73
2021/05/14 08:06:19;;;;;;;12.07;1.90;;;13.60;57.30;;;;;;5112258;27;20034;-73
2021/05/14 08:08:47;;;;;;;8.90;1.80;;;13.60;57.80;;;;;;5111168;27;20023;-68
2021/05/14 08:11:14;;;;;;;10.38;1.60;;;13.50;57.90;;;;;;5093835;27;20019;-67
2021/05/14 08:13:42;;;;;;;10.70;1.80;;;13.40;58.40;;;;;;5112687;27;20019;-68
2021/05/14 08:16:09;;;;;;;3.60;1.23;;;13.30;58.70;;;;;;5110049;27;20034;-70
2021/05/14 08:18:36;;;;;;;7.82;1.38;;;13.40;58.00;;;;;;5109665;27;20019;-69
2021/05/14 08:21:04;;;;;;;5.22;1.27;;;13.50;57.60;;;;;;5109573;27;20260;-68
2021/05/14 08:23:31;;;;;;;6.95;1.45;;;13.40;58.30;;;;;;5111808;27;20047;-68
2021/05/14 08:25:59;;;;;;;4.95;1.23;;;13.20;58.80;;;;;;5108085;27;20082;-68
2021/05/14 08:28:26;;;;;;;6.63;1.75;;;13.00;59.60;;;;;;5112364;27;20073;-72
2021/05/14 08:30:53;;;;;;;4.03;1.38;;;12.90;60.50;;;;;;5093518;27;20023;-70
2021/05/14 08:33:22;;;;;;;10.73;1.40;;;12.80;61.80;;;;;;5112434;27;20019;-70
2021/05/14 08:35:49;;;;;;;4.32;1.65;;;12.70;61.30;;;;;;5108275;27;20094;-69
2021/05/14 08:38:17;;;;;;;4.53;1.48;;;12.60;62.30;;;;;;5114020;27;20023;-72
2021/05/14 08:40:44;;;;;;;3.95;1.17;;;12.50;62.80;;;;;;5113224;27;20083;-70
2021/05/14 08:43:12;;;;;;;7.65;1.77;;;12.40;63.00;;;;;;5111079;27;20031;-68
2021/05/14 08:45:41;;;;;;;10.07;2.13;;;12.40;62.10;;;;;;5092225;27;20184;-69
2021/05/14 08:48:13;;;;;;;6.53;1.77;;;12.50;61.00;;;;;;5097763;28;20027;-66
2021/05/14 08:50:42;;;;;;;4.82;1.40;;;12.60;60.10;;;;;;5111544;27;20023;-72
2021/05/14 08:53:09;;;;;;;7.80;1.55;;;12.60;59.50;;;;;;5112109;27;20435;-73
2021/05/14 08:55:37;;;;;;;2.70;1.50;;;12.70;59.30;;;;;;5109340;27;20500;-71
2021/05/14 08:58:05;;;;;;;3.13;1.25;;;12.70;58.90;;;;;;5111562;27;20115;-70
2021/05/14 09:00:32;;;;;;;8.50;1.52;;;12.70;59.50;;;;;;5114179;27;20027;-66
2021/05/14 09:03:00;;;;;;;2.40;1.23;;;12.60;59.00;;;;;;5093278;28;20543;-73
2021/05/14 09:05:32;;;;;;;3.70;1.15;;;12.80;58.60;;;;;;5110291;27;20034;-74
2021/05/14 09:08:00;;;;;;;;;;;12.70;58.50;;;;;;5115628;27;20436;-66
2021/05/14 09:10:29;;;;;;;4.97;1.13;;;12.60;59.20;;;;;;5111725;27;19911;-68
2021/05/14 09:12:57;;;;;;;7.53;1.27;;;12.50;60.10;;;;;;5094341;28;20109;-70
2021/05/14 09:15:35;;;;;;;9.60;1.25;;;12.30;60.90;;;;;;5113324;28;20027;-67
2021/05/14 09:18:12;;;;;;;11.90;1.80;;;12.20;60.30;;;;;;5112976;28;21543;-76
2021/05/14 09:21:00;;;;;;;7.40;1.60;;;12.10;61.30;;;;;;5111424;28;20027;-71
2021/05/14 09:23:34;;;;;;;5.60;1.60;;;12.00;61.70;;;;;;5106007;28;20117;-68
2021/05/14 09:26:10;;;;;;;6.63;1.20;;;11.90;64.00;;;;;;5109610;28;20386;-70
2021/05/14 09:28:50;;;;;;;3.53;1.10;;;11.70;65.50;;;;;;5086197;28;20124;-67
2021/05/14 09:31:18;;;;;;;3.20;1.40;;;11.50;67.30;;;;;;5111771;28;20012;-68
2021/05/14 09:33:51;;;;;;;4.38;1.25;;;11.40;66.20;;;;;;5110968;28;20023;-72
2021/05/14 09:36:32;;;;;;;4.50;1.30;;;11.30;67.20;;;;;;5113109;28;20345;-64
2021/05/14 09:39:06;;;;;;;4.15;1.60;;;11.20;68.40;;;;;;5111144;28;20031;-72
2021/05/14 09:41:44;;;;;;;5.00;1.77;;;11.10;68.80;;;;;;5108806;28;20073;-67
2021/05/14 09:44:14;;;;;;;12.13;7.78;;;11.00;69.10;;;;;;5107313;28;20038;-73
2021/05/14 09:47:02;;;;;;;3.92;2.97;;;11.00;68.80;;;;;;5110612;28;20031;-64
2021/05/14 09:49:29;;;;;;;5.15;2.25;;;11.00;68.10;;;;;;5111188;28;20457;-63
2021/05/14 09:52:06;;;;;;;5.63;2.63;;;10.90;69.30;;;;;;5111913;28;20192;-70
2021/05/14 09:54:38;;;;;;;4.57;2.55;;;10.70;69.20;;;;;;5110654;28;20382;-63
2021/05/14 09:59:48;;;;;;;6.07;3.10;;;10.60;69.40;;;;;;5113230;27;20152;-70
2021/05/14 10:02:30;;;;;;;4.63;2.55;;;10.50;71.80;;;;;;5113063;27;20027;-69
2021/05/14 10:05:02;;;;;;;5.05;2.45;;;10.50;72.80;;;;;;5115159;27;20363;-64
2021/05/14 10:07:31;;;;;;;5.93;2.72;;;10.40;72.20;;;;;;5111673;27;20030;-70
2021/05/14 10:10:06;;;;;;;4.90;2.72;;;10.40;72.30;;;;;;5113832;27;20038;-64
2021/05/14 10:12:34;;;;;;;7.43;3.17;;;10.30;72.50;;;;;;5112503;27;20108;-71
2021/05/14 10:15:03;;;;;;;10.98;6.43;;;10.20;72.70;;;;;;5113441;27;20028;-63
2021/05/14 10:17:30;;;;;;;22.05;11.82;;;10.20;72.80;;;;;;5111546;27;20022;-63
2021/05/14 10:20:00;;;;;;;8.80;5.20;;;10.10;72.90;;;;;;5093786;27;20084;-70
2021/05/14 10:22:29;;;;;;;8.55;4.47;;;10.10;73.30;;;;;;5089368;28;20443;-64
2021/05/14 10:25:00;;;;;;;5.13;3.40;;;10.10;72.80;;;;;;5093124;28;20107;-65
2021/05/14 10:27:29;;;;;;;5.85;3.25;;;10.10;72.00;;;;;;5090420;28;20032;-72
2021/05/14 10:30:01;;;;;;;7.60;3.72;;;10.10;72.70;;;;;;5095975;28;20024;-74
2021/05/14 10:32:46;;;;;;;7.78;3.47;;;10.10;72.50;;;;;;5093189;28;20024;-65
2021/05/14 10:35:18;;;;;;;4.95;3.38;;;10.20;70.90;;;;;;5093995;28;20067;-73
2021/05/14 10:37:49;;;;;;;7.80;3.83;;;10.30;71.80;;;;;;5091629;28;20145;-64
2021/05/14 10:40:36;;;;;;;5.30;3.78;;;10.20;71.20;;;;;;5095990;28;20055;-65
2021/05/14 10:43:11;;;;;;;6.97;3.53;;;10.30;71.00;;;;;;5091142;28;20123;-72
2021/05/14 10:45:48;;;;;;;6.05;3.50;;;10.20;71.20;;;;;;5094582;28;20024;-71
2021/05/14 10:48:19;;;;;;;5.43;3.58;;;10.40;68.90;;;;;;5091298;28;20028;-71
2021/05/14 10:50:53;;;;;;;5.77;3.33;;;10.70;68.30;;;;;;5091184;28;20024;-65
2021/05/14 10:53:55;;;;;;;6.50;3.45;;;10.70;68.70;;;;;;5092779;28;20111;-74
2021/05/14 10:56:27;;;;;;;5.72;3.47;;;10.60;69.10;;;;;;5049670;28;20032;-65
2021/05/14 10:59:01;;;;;;;6.93;3.42;;;10.50;69.70;;;;;;5089027;28;20071;-70
2021/05/14 11:01:43;;;;;;;7.82;4.15;;;10.50;69.20;;;;;;5086886;28;20143;-70
2021/05/14 11:04:13;;;;;;;8.45;3.95;;;10.60;69.40;;;;;;5097317;28;20024;-66
2021/05/14 11:06:48;;;;;;;7.75;4.22;;;10.50;69.80;;;;;;5095075;28;20032;-65
2021/05/14 11:09:17;;;;;;;9.18;4.30;;;10.50;69.00;;;;;;5093146;28;20019;-73
2021/05/14 11:12:05;;;;;;;7.05;4.75;;;10.60;68.60;;;;;;5093667;28;20023;-73
2021/05/14 11:14:45;;;;;;;7.18;4.82;;;10.70;66.90;;;;;;5093382;28;20131;-65
2021/05/14 11:17:14;;;;;;;10.88;4.60;;;10.80;66.50;;;;;;5086680;28;20062;-74
2021/05/14 11:19:52;;;;;;;13.68;4.85;;;10.80;66.90;;;;;;5093835;28;20574;-72
2021/05/14 11:22:26;;;;;;;8.38;4.20;;;10.70;68.10;;;;;;5092370;28;20084;-73
2021/05/14 11:25:01;;;;;;;6.65;4.28;;;10.50;69.10;;;;;;5118861;27;20053;-72
2021/05/14 11:27:34;;;;;;;5.25;3.80;;;10.50;69.20;;;;;;5115517;27;20660;-66
2021/05/14 11:30:02;;;;;;;7.57;4.60;;;10.50;69.40;;;;;;5115655;27;20087;-70
2021/05/14 11:32:32;;;;;;;9.02;4.22;;;10.40;70.30;;;;;;5115617;27;20431;-71
2021/05/14 11:35:02;;;;;;;9.05;4.45;;;10.40;69.70;;;;;;5106916;27;20020;-70
2021/05/14 11:37:43;;;;;;;5.90;3.60;;;10.40;69.60;;;;;;5114747;27;20039;-64
2021/05/14 11:40:12;;;;;;;8.95;4.53;;;10.40;69.80;;;;;;5108163;27;20034;-70
2021/05/14 11:42:45;;;;;;;7.28;3.88;;;10.30;70.10;;;;;;5120132;27;20561;-71
2021/05/14 11:45:16;;;;;;;7.07;3.85;;;10.30;70.40;;;;;;5095539;27;20027;-73
2021/05/14 11:47:53;;;;;;;8.27;3.83;;;10.30;70.70;;;;;;5117639;27;20038;-64
2021/05/14 11:50:33;;;;;;;7.25;3.95;;;10.20;71.30;;;;;;5120940;27;20181;-64
2021/05/14 11:53:03;;;;;;;6.28;3.90;;;10.20;71.60;;;;;;5116920;27;20057;-63
2021/05/14 11:55:31;;;;;;;7.05;4.10;;;10.10;72.80;;;;;;5114696;27;20033;-61
2021/05/14 11:57:59;;;;;;;6.40;4.00;;;10.10;72.10;;;;;;5113974;27;20700;-60
2021/05/14 12:00:39;;;;;;;8.13;3.90;;;10.10;72.30;;;;;;5121461;27;20027;-61
2021/05/14 12:03:10;;;;;;;8.00;4.18;;;10.00;74.00;;;;;;5112659;27;20023;-71
2021/05/14 12:05:39;;;;;;;10.32;5.30;;;10.00;73.20;;;;;;5113967;27;20904;-66
2021/05/14 12:08:10;;;;;;;8.48;4.47;;;9.90;73.90;;;;;;5112739;27;20028;-62
2021/05/14 12:10:53;;;;;;;10.20;6.57;;;9.90;73.30;;;;;;5111250;27;20015;-63
2021/05/14 12:13:20;;;;;;;;;;;9.80;74.00;;;;;;5112898;27;20030;-64
2021/05/14 12:16:08;;;;;;;8.73;4.43;;;9.90;75.00;;;;;;5114738;27;20022;-66
2021/05/14 12:18:37;;;;;;;9.05;4.95;;;9.80;75.00;;;;;;5108209;27;20503;-75
2021/05/14 12:21:11;;;;;;;8.65;4.68;;;9.70;76.60;;;;;;5087124;27;20027;-76
2021/05/14 12:23:38;;;;;;;6.75;4.05;;;9.50;76.90;;;;;;5095556;27;20035;-75
2021/05/14 12:26:08;;;;;;;8.80;3.33;;;9.40;76.50;;;;;;5091727;27;20589;-75
2021/05/14 12:28:40;;;;;;;11.52;8.10;;;9.40;78.30;;;;;;5116082;27;20019;-77
2021/05/14 12:31:13;;;;;;;8.87;4.00;;;9.50;78.20;;;;;;5095133;27;20516;-67
2021/05/14 12:34:10;;;;;;;5.00;3.17;;;9.40;76.80;;;;;;5116716;27;20506;-66
2021/05/14 12:36:41;;;;;;;8.65;3.45;;;9.50;76.40;;;;;;5113624;27;20399;-72
2021/05/14 12:39:14;;;;;;;6.80;3.22;;;9.50;76.80;;;;;;5114510;27;20035;-73
2021/05/14 12:41:59;;;;;;;12.10;6.80;;;9.50;76.80;;;;;;5116391;27;20269;-65
2021/05/14 12:44:33;;;;;;;9.10;4.10;;;9.40;77.60;;;;;;5114043;27;20023;-64
2021/05/14 12:47:02;;;;;;;6.55;3.45;;;9.40;78.40;;;;;;5114270;27;20421;-65
2021/05/14 12:49:31;;;;;;;6.70;3.95;;;9.30;78.30;;;;;;5114969;27;20026;-64
2021/05/14 12:52:24;;;;;;;8.55;4.13;;;9.20;79.10;;;;;;5097146;27;20119;-70
2021/05/14 12:55:16;;;;;;;7.15;3.63;;;9.10;78.80;;;;;;5106450;27;20035;-71
2021/05/14 12:57:52;;;;;;;6.10;3.28;;;9.10;80.00;;;;;;5104651;27;20557;-70
2021/05/14 13:00:22;;;;;;;5.55;3.10;;;9.10;78.30;;;;;;5111697;27;20031;-72
2021/05/14 13:03:12;;;;;;;4.50;2.80;;;9.10;79.60;;;;;;5115581;27;20102;-69
2021/05/14 13:05:43;;;;;;;8.10;3.13;;;9.10;79.40;;;;;;5103804;27;20031;-66